Time;durP1;ratioP1;P1;durP2;ratioP2;P2;SDS_P1;SDS_P2;PMS_P1;PMS_P2;Temp;Humidity;BMP_temperature;BMP_pressure;BME280_temperature;BME280_humidity;BME280_pressure;Samples;Min_cycle;Max_cycle;Signal;HPM_P1;HPM_P2
2022/07/13 00:00:03;;;;;;;;;;;461.10;1945.60;;;;;;5090968;28;19927;-60
2022/07/13 00:02:29;;;;;;;;;;;461.10;1945.60;;;;;;5090956;28;19943;-57
2022/07/13 00:04:54;;;;;;;;;;;461.10;1945.60;;;;;;5090777;28;19958;-57
2022/07/13 00:07:20;;;;;;;;;;;461.10;1945.60;;;;;;5090722;28;19908;-57
2022/07/13 00:09:46;;;;;;;;;;;461.10;1945.60;;;;;;5090131;28;19916;-57
2022/07/13 00:12:11;;;;;;;;;;;461.00;1971.20;;;;;;5090632;28;20362;-60
2022/07/13 00:14:37;;;;;;;;;;;461.00;1971.20;;;;;;5090741;28;19959;-57
2022/07/13 00:17:02;;;;;;;;;;;461.00;1971.20;;;;;;5090859;28;19911;-61
2022/07/13 00:19:28;;;;;;;;;;;461.00;1945.60;;;;;;5090689;28;19908;-57
2022/07/13 00:21:55;;;;;;;;;;;461.10;1945.60;;;;;;5090740;28;20314;-57
2022/07/13 00:24:21;;;;;;;;;;;461.10;1945.60;;;;;;5090873;28;19912;-58
2022/07/13 00:26:46;;;;;;;;;;;461.10;1945.60;;;;;;5090570;28;19916;-57
2022/07/13 00:29:12;;;;;;;;;;;461.00;1971.20;;;;;;5090656;28;19923;-60
2022/07/13 00:31:37;;;;;;;;;;;461.00;1971.20;;;;;;5090368;28;19908;-58
2022/07/13 00:34:03;;;;;;;;;;;461.00;1996.80;;;;;;5090771;28;19915;-60
2022/07/13 00:36:28;;;;;;;;;;;460.90;1996.80;;;;;;5090347;28;20005;-57
2022/07/13 00:38:54;;;;;;;;;;;460.80;2022.40;;;;;;5090295;28;20354;-58
2022/07/13 00:41:19;;;;;;;;;;;460.80;2022.40;;;;;;5090398;28;19911;-57
2022/07/13 00:43:45;;;;;;;;;;;436.10;1996.80;;;;;;5090545;28;19921;-58
2022/07/13 00:46:11;;;;;;;;;;;436.10;1996.80;;;;;;5090695;28;19908;-60
2022/07/13 00:48:38;;;;;;;;;;;460.80;2022.40;;;;;;5090171;28;20277;-57
2022/07/13 00:51:04;;;;;;;;;;;436.10;2022.40;;;;;;5090433;28;20003;-59
2022/07/13 00:53:30;;;;;;;;;;;436.10;1996.80;;;;;;5090460;28;19908;-60
2022/07/13 00:55:56;;;;;;;;;;;436.10;2048.00;;;;;;5090044;28;19962;-58
2022/07/13 00:58:22;;;;;;;;;;;436.00;2022.40;;;;;;5090383;28;19908;-61
2022/07/13 01:00:47;;;;;;;;;;;435.90;2073.60;;;;;;5090214;28;19928;-61
2022/07/13 01:03:13;;;;;;;;;;;435.90;2073.60;;;;;;5090435;28;19916;-61
2022/07/13 01:05:39;;;;;;;;;;;435.90;2073.60;;;;;;5090258;28;20003;-57
2022/07/13 01:08:05;;;;;;;;;;;435.90;2048.00;;;;;;5089878;28;19912;-58
2022/07/13 01:10:31;;;;;;;;;;;435.90;2048.00;;;;;;5090207;28;19915;-61
2022/07/13 01:12:56;;;;;;;;;;;435.90;2073.60;;;;;;5090087;28;19938;-58
2022/07/13 01:15:22;;;;;;;;;;;435.90;2073.60;;;;;;5090371;28;19950;-60
2022/07/13 01:17:48;;;;;;;;;;;435.90;2073.60;;;;;;5090128;28;20346;-60
2022/07/13 01:20:15;;;;;;;;;;;435.90;2099.20;;;;;;5092259;28;19933;-61
2022/07/13 01:22:50;;;;;;;;;;;435.90;2099.20;;;;;;5094018;28;20415;-61
2022/07/13 01:25:16;;;;;;;;;;;435.90;2099.20;;;;;;5093953;28;19908;-57
2022/07/13 01:27:42;;;;;;;;;;;435.90;2099.20;;;;;;5093836;28;20372;-61
2022/07/13 01:30:08;;;;;;;;;;;435.90;2099.20;;;;;;5093893;28;19967;-57
2022/07/13 01:32:44;;;;;;;;;;;435.90;2099.20;;;;;;5093631;28;19944;-61
2022/07/13 01:35:10;;;;;;;;;;;435.90;2124.80;;;;;;5093682;28;19912;-61
2022/07/13 01:37:35;;;;;;;;;;;435.90;2124.80;;;;;;5093410;28;19914;-60
2022/07/13 01:40:01;;;;;;;;;;;435.80;2150.40;;;;;;5093759;28;19953;-61
2022/07/13 01:42:27;;;;;;;;;;;435.80;2150.40;;;;;;5093492;28;20318;-57
2022/07/13 01:44:53;;;;;;;;;;;435.80;2176.00;;;;;;5093661;28;19944;-58
2022/07/13 01:47:18;;;;;;;;;;;435.70;2176.00;;;;;;5093491;28;20011;-56
2022/07/13 01:49:44;;;;;;;;;;;435.70;2201.60;;;;;;5093611;28;20011;-61
2022/07/13 01:52:09;;;;;;;;;;;435.60;2201.60;;;;;;5093398;28;19912;-62
2022/07/13 01:54:35;;;;;;;;;;;435.70;2201.60;;;;;;5093097;28;19996;-58
2022/07/13 01:57:01;;;;;;;;;;;435.60;2227.20;;;;;;5093369;28;19954;-61
2022/07/13 01:59:26;;;;;;;;;;;435.60;2227.20;;;;;;5093299;28;19909;-57
2022/07/13 02:01:53;;;;;;;;;;;435.60;2227.20;;;;;;5093182;28;20255;-60
2022/07/13 02:04:18;;;;;;;;;;;435.60;2252.80;;;;;;5093303;28;19915;-61
2022/07/13 02:06:44;;;;;;;;;;;435.60;2278.40;;;;;;5093367;28;19912;-61
2022/07/13 02:09:09;;;;;;;;;;;435.60;2304.00;;;;;;5092739;28;19924;-61
2022/07/13 02:11:35;;;;;;;;;;;435.40;2355.20;;;;;;5092744;28;19912;-58
2022/07/13 02:14:01;;;;;;;;;;;435.30;2355.20;;;;;;5093090;28;20270;-62
2022/07/13 02:16:26;;;;;;;;;;;435.30;2355.20;;;;;;5092645;28;19908;-57
2022/07/13 02:18:52;;;;;;;;;;;435.20;2355.20;;;;;;5093022;28;19912;-57
2022/07/13 02:21:17;;;;;;;;;;;435.20;2355.20;;;;;;5093029;28;19908;-57
2022/07/13 02:23:43;;;;;;;;;;;410.50;2355.20;;;;;;5092888;28;20374;-61
2022/07/13 02:26:08;;;;;;;;;;;410.50;2355.20;;;;;;5092661;28;19916;-58
2022/07/13 02:28:34;;;;;;;;;;;435.20;2355.20;;;;;;5092578;28;19945;-57
2022/07/13 02:30:59;;;;;;;;;;;435.20;2355.20;;;;;;5091747;28;19908;-57
2022/07/13 02:33:25;;;;;;;;;;;435.20;2355.20;;;;;;5092488;28;19908;-58
2022/07/13 02:35:50;;;;;;;;;;;435.20;2355.20;;;;;;5092877;28;19909;-57
2022/07/13 02:38:16;;;;;;;;;;;435.20;2355.20;;;;;;5092632;28;20431;-59
2022/07/13 02:40:41;;;;;;;;;;;435.20;2355.20;;;;;;5092421;28;20292;-57
2022/07/13 02:43:07;;;;;;;;;;;410.50;2355.20;;;;;;5092399;28;19912;-57
2022/07/13 02:45:33;;;;;;;;;;;435.20;2355.20;;;;;;5092394;28;19951;-58
2022/07/13 02:47:59;;;;;;;;;;;410.50;2355.20;;;;;;5091014;28;19958;-62
2022/07/13 02:50:24;;;;;;;;;;;435.20;2355.20;;;;;;5092439;28;19994;-58
2022/07/13 02:52:53;;;;;;;;;;;435.30;2355.20;;;;;;5092508;28;20354;-57
2022/07/13 02:55:18;;;;;;;;;;;435.20;2355.20;;;;;;5092269;28;19912;-57
2022/07/13 02:57:45;;;;;;;;;;;435.30;2355.20;;;;;;5092225;28;19931;-60
2022/07/13 03:00:11;;;;;;;;;;;435.30;2355.20;;;;;;5091963;28;19920;-61
2022/07/13 03:02:37;;;;;;;;;;;435.30;2355.20;;;;;;5091924;28;19915;-57
2022/07/13 03:05:02;;;;;;;;;;;435.30;2355.20;;;;;;5092075;28;19908;-60
2022/07/13 03:07:28;;;;;;;;;;;435.30;2355.20;;;;;;5091798;28;19908;-57
2022/07/13 03:09:54;;;;;;;;;;;435.30;2355.20;;;;;;5091817;28;19926;-57
2022/07/13 03:12:20;;;;;;;;;;;435.30;2355.20;;;;;;5091729;28;20344;-61
2022/07/13 03:14:45;;;;;;;;;;;435.30;2355.20;;;;;;5092002;28;20046;-58
2022/07/13 03:17:11;;;;;;;;;;;435.40;2355.20;;;;;;5092133;28;19908;-61
2022/07/13 03:19:36;;;;;;;;;;;435.50;2355.20;;;;;;5091671;28;19912;-57
2022/07/13 03:22:02;;;;;;;;;;;435.50;2355.20;;;;;;5091761;28;20015;-57
2022/07/13 03:24:28;;;;;;;;;;;435.50;2355.20;;;;;;5091468;28;19908;-57
2022/07/13 03:26:53;;;;;;;;;;;435.60;2355.20;;;;;;5091621;28;20046;-58
2022/07/13 03:29:19;;;;;;;;;;;435.60;2355.20;;;;;;5091617;28;19927;-57
2022/07/13 03:31:44;;;;;;;;;;;435.60;2355.20;;;;;;5091529;28;19908;-57
2022/07/13 03:34:10;;;;;;;;;;;435.70;2355.20;;;;;;5091611;28;19943;-61
2022/07/13 03:36:36;;;;;;;;;;;435.80;2355.20;;;;;;5091390;28;19962;-57
2022/07/13 03:39:01;;;;;;;;;;;435.90;2355.20;;;;;;5091535;28;20273;-61
2022/07/13 03:41:27;;;;;;;;;;;435.90;2355.20;;;;;;5090857;28;19919;-61
2022/07/13 03:43:53;;;;;;;;;;;435.90;2355.20;;;;;;5091356;28;19912;-57
2022/07/13 03:46:18;;;;;;;;;;;436.00;2355.20;;;;;;5091419;28;20365;-57
2022/07/13 03:48:44;;;;;;;;;;;436.00;2355.20;;;;;;5091048;28;20418;-58
2022/07/13 03:51:10;;;;;;;;;;;436.10;2355.20;;;;;;5091217;28;19912;-60
2022/07/13 03:53:35;;;;;;;;;;;436.10;2355.20;;;;;;5091058;28;19915;-57
2022/07/13 03:56:01;;;;;;;;;;;460.80;2380.80;;;;;;5091081;28;19951;-57
2022/07/13 03:58:26;;;;;;;;;;;460.80;2380.80;;;;;;5090860;28;20017;-57
2022/07/13 04:00:52;;;;;;;;;;;460.90;2380.80;;;;;;5091030;28;20026;-58
2022/07/13 04:03:17;;;;;;;;;;;460.90;2380.80;;;;;;5090865;28;20006;-56
2022/07/13 04:05:43;;;;;;;;;;;461.00;2380.80;;;;;;5091131;28;19908;-56
2022/07/13 04:08:08;;;;;;;;;;;461.10;2380.80;;;;;;5090665;28;20386;-57
2022/07/13 04:10:34;;;;;;;;;;;461.10;2380.80;;;;;;5090560;28;19916;-58
2022/07/13 04:13:00;;;;;;;;;;;461.20;2380.80;;;;;;5090922;28;19922;-57
2022/07/13 04:15:25;;;;;;;;;;;461.20;2380.80;;;;;;5090830;28;19908;-57
2022/07/13 04:17:51;;;;;;;;;;;461.30;2329.60;;;;;;5090839;28;19955;-58
2022/07/13 04:20:16;;;;;;;;;;;461.40;2329.60;;;;;;5090572;28;19977;-58
2022/07/13 04:22:42;;;;;;;;;;;461.50;2329.60;;;;;;5090712;28;19934;-61
2022/07/13 04:25:08;;;;;;;;;;;461.50;2329.60;;;;;;5090349;28;19912;-58
2022/07/13 04:27:34;;;;;;;;;;;461.50;2329.60;;;;;;5090723;28;19908;-61
2022/07/13 04:30:00;;;;;;;;;;;461.50;2329.60;;;;;;5090746;28;20318;-60
2022/07/13 04:32:26;;;;;;;;;;;461.60;2329.60;;;;;;5090503;28;19999;-59
2022/07/13 04:34:51;;;;;;;;;;;461.70;2304.00;;;;;;5090581;28;20377;-61
2022/07/13 04:37:17;;;;;;;;;;;486.40;2304.00;;;;;;5090473;28;20010;-60
2022/07/13 04:39:42;;;;;;;;;;;486.50;2278.40;;;;;;5090585;28;19995;-58
2022/07/13 04:42:08;;;;;;;;;;;486.80;2252.80;;;;;;5090192;28;19909;-60
2022/07/13 04:44:34;;;;;;;;;;;563.90;1996.80;;;;;;5089201;28;19930;-60
2022/07/13 04:46:59;;;;;;;;;;;666.50;1561.60;;;;;;5090590;28;20005;-58
2022/07/13 04:49:25;;;;;;;;;;;742.90;1408.00;;;;;;5090425;28;20001;-58
2022/07/13 04:51:51;;;;;;;;;;;793.80;1305.60;;;;;;5090523;28;20358;-59
2022/07/13 04:54:17;;;;;;;;;;;819.90;1203.20;;;;;;5090820;28;19912;-58
2022/07/13 04:56:42;;;;;;;;;;;845.50;1152.00;;;;;;5094440;28;19908;-61
2022/07/13 04:59:08;;;;;;;;;;;871.30;1100.80;;;;;;5094427;28;20003;-60
2022/07/13 05:01:33;;;;;;;;;;;896.10;1049.60;;;;;;5093090;28;20316;-61
2022/07/13 05:03:59;;;;;;;;;;;896.90;1024.00;;;;;;5094338;28;19940;-58
2022/07/13 05:06:25;;;;;;;;;;;922.20;998.40;;;;;;5094297;28;19919;-59
2022/07/13 05:08:50;;;;;;;;;;;948.00;972.80;;;;;;5094289;28;20285;-60
2022/07/13 05:11:16;;;;;;;;;;;948.10;947.20;;;;;;5092771;28;19956;-59
2022/07/13 05:13:41;;;;;;;;;;;972.80;972.80;;;;;;5094281;28;19920;-59
2022/07/13 05:16:07;;;;;;;;;;;973.30;947.20;;;;;;5093993;28;19912;-59
2022/07/13 05:18:33;;;;;;;;;;;;;;;;;;5094354;28;19908;-59
2022/07/13 05:20:58;;;;;;;;;;;947.50;972.80;;;;;;5094136;28;19912;-59
2022/07/13 05:23:24;;;;;;;;;;;973.70;921.60;;;;;;5094185;28;19935;-59
2022/07/13 05:25:50;;;;;;;;;;;998.90;947.20;;;;;;5094271;28;19908;-60
2022/07/13 05:28:15;;;;;;;;;;;1024.10;921.60;;;;;;5093622;28;19912;-61
2022/07/13 05:30:41;;;;;;;;;;;1024.30;896.00;;;;;;5093822;28;19961;-58
2022/07/13 05:33:06;;;;;;;;;;;1024.90;896.00;;;;;;5093956;28;19915;-59
2022/07/13 05:35:32;;;;;;;;;;;1049.70;921.60;;;;;;5094085;28;19995;-60
2022/07/13 05:37:57;;;;;;;;;;;1050.40;870.40;;;;;;5093507;28;19969;-58
2022/07/13 05:40:23;;;;;;;;;;;1050.50;870.40;;;;;;5093748;28;19919;-60
2022/07/13 05:42:48;;;;;;;;;;;1075.40;844.80;;;;;;5093666;28;19919;-59
2022/07/13 05:45:14;;;;;;;;;;;1101.00;844.80;;;;;;5093818;28;20346;-59
2022/07/13 05:47:45;;;;;;;;;;;1100.90;844.80;;;;;;5093587;28;19912;-61
2022/07/13 05:50:14;;;;;;;;;;;1101.00;819.20;;;;;;5093508;28;19946;-62
2022/07/13 05:52:40;;;;;;;;;;;1126.60;819.20;;;;;;5093753;28;20129;-60
2022/07/13 05:55:06;;;;;;;;;;;1101.60;819.20;;;;;;5093406;28;20069;-59
2022/07/13 05:57:32;;;;;;;;;;;1126.80;793.60;;;;;;5093406;28;19939;-61
2022/07/13 05:59:57;;;;;;;;;;;1152.10;793.60;;;;;;5093100;28;20419;-62
2022/07/13 06:02:23;;;;;;;;;;;1127.30;793.60;;;;;;5093677;28;19954;-61
2022/07/13 06:04:48;;;;;;;;;;;1126.70;819.20;;;;;;5093466;28;20350;-59
2022/07/13 06:07:14;;;;;;;;;;;1126.90;793.60;;;;;;5093205;28;19912;-60
2022/07/13 06:09:40;;;;;;;;;;;1152.10;793.60;;;;;;5093120;28;19920;-59
2022/07/13 06:12:05;;;;;;;;;;;1152.10;793.60;;;;;;5091164;28;19912;-60
2022/07/13 06:14:31;;;;;;;;;;;1178.10;742.40;;;;;;5091725;28;19947;-59
2022/07/13 06:16:56;;;;;;;;;;;1152.10;768.00;;;;;;5091481;28;19908;-60
2022/07/13 06:19:22;;;;;;;;;;;1178.10;716.80;;;;;;5091723;28;20344;-62
2022/07/13 06:21:47;;;;;;;;;;;1178.00;716.80;;;;;;5091163;28;20003;-59
2022/07/13 06:24:13;;;;;;;;;;;1152.60;742.40;;;;;;5090456;28;19919;-63
2022/07/13 06:26:39;;;;;;;;;;;1152.10;742.40;;;;;;5090000;28;20336;-60
2022/07/13 06:29:05;;;;;;;;;;;1127.30;742.40;;;;;;5090293;28;19920;-61
2022/07/13 06:31:30;;;;;;;;;;;1152.10;742.40;;;;;;5091075;28;20038;-61
2022/07/13 06:33:56;;;;;;;;;;;1152.10;742.40;;;;;;5091272;28;19959;-62
2022/07/13 06:36:22;;;;;;;;;;;1152.40;716.80;;;;;;5091474;28;19908;-62
2022/07/13 06:38:49;;;;;;;;;;;1126.90;742.40;;;;;;5091509;28;19915;-62
2022/07/13 06:41:15;;;;;;;;;;;1152.20;716.80;;;;;;5090838;28;20362;-61
2022/07/13 06:43:40;;;;;;;;;;;1177.60;716.80;;;;;;5091215;28;19923;-60
2022/07/13 06:46:07;;;;;;;;;;;1177.70;716.80;;;;;;5091611;28;19908;-61
2022/07/13 06:48:32;;;;;;;;;;;1177.60;716.80;;;;;;5090982;28;19916;-62
2022/07/13 06:50:58;;;;;;;;;;;1178.20;691.20;;;;;;5088262;28;20007;-62
2022/07/13 06:53:23;;;;;;;;;;;1178.20;691.20;;;;;;5091237;28;19909;-61
2022/07/13 06:55:49;;;;;;;;;;;1178.50;665.60;;;;;;5091015;28;19915;-62
2022/07/13 06:58:14;;;;;;;;;;;1203.30;691.20;;;;;;5090792;28;19918;-61
2022/07/13 07:00:40;;;;;;;;;;;1203.90;691.20;;;;;;5090792;28;19924;-61
2022/07/13 07:03:06;;;;;;;;;;;1229.50;665.60;;;;;;5090652;28;19993;-62
2022/07/13 07:05:31;;;;;;;;;;;1229.00;691.20;;;;;;5091175;28;19908;-60
2022/07/13 07:07:58;;;;;;;;;;;1228.90;691.20;;;;;;5090451;28;19963;-62
2022/07/13 07:10:23;;;;;;;;;;;1229.70;665.60;;;;;;5090700;28;19923;-62
2022/07/13 07:12:49;;;;;;;;;;;1204.10;665.60;;;;;;5090515;28;19916;-63
2022/07/13 07:15:14;;;;;;;;;;;1204.10;665.60;;;;;;5090852;28;19918;-61
2022/07/13 07:17:44;;;;;;;;;;;1204.10;665.60;;;;;;5090091;28;20017;-63
2022/07/13 07:20:10;;;;;;;;;;;1204.10;665.60;;;;;;5090676;28;19908;-62
2022/07/13 07:22:35;;;;;;;;;;;1203.70;691.20;;;;;;5090173;28;20007;-62
2022/07/13 07:25:01;;;;;;;;;;;1228.80;691.20;;;;;;5090707;28;19938;-62
2022/07/13 07:27:26;;;;;;;;;;;1229.40;691.20;;;;;;5090320;28;19962;-61
2022/07/13 07:29:52;;;;;;;;;;;1254.40;691.20;;;;;;5090269;28;19923;-63
2022/07/13 07:32:18;;;;;;;;;;;1229.20;691.20;;;;;;5090231;28;19991;-60
2022/07/13 07:34:43;;;;;;;;;;;1229.30;691.20;;;;;;5090204;28;20261;-63
2022/07/13 07:37:09;;;;;;;;;;;1254.40;716.80;;;;;;5090219;28;20310;-60
2022/07/13 07:39:37;;;;;;;;;;;1254.50;691.20;;;;;;5090389;28;19912;-60
2022/07/13 07:42:04;;;;;;;;;;;1254.50;691.20;;;;;;5089978;28;19919;-60
2022/07/13 07:44:29;;;;;;;;;;;1254.60;665.60;;;;;;5089803;28;19912;-58
2022/07/13 07:46:55;;;;;;;;;;;1255.00;691.20;;;;;;5089682;28;19908;-61
2022/07/13 07:49:21;;;;;;;;;;;1255.00;665.60;;;;;;5090176;28;20015;-61
2022/07/13 07:51:48;;;;;;;;;;;1254.60;691.20;;;;;;5090189;28;19910;-60
2022/07/13 07:54:13;;;;;;;;;;;1229.40;665.60;;;;;;5089775;28;19927;-60
2022/07/13 07:56:41;;;;;;;;;;;1229.40;665.60;;;;;;5089642;28;19908;-61
2022/07/13 07:59:09;;;;;;;;;;;1229.00;691.20;;;;;;5089931;28;19919;-60
2022/07/13 08:01:35;;;;;;;;;;;1203.90;665.60;;;;;;5089543;28;19932;-60
2022/07/13 08:04:00;;;;;;;;;;;1229.00;691.20;;;;;;5089818;28;19934;-60
2022/07/13 08:06:26;;;;;;;;;;;1228.90;691.20;;;;;;5089754;28;19908;-60
2022/07/13 08:08:51;;;;;;;;;;;1229.30;665.60;;;;;;5089620;28;19928;-61
2022/07/13 08:11:18;;;;;;;;;;;1229.30;665.60;;;;;;5089255;28;20008;-60
2022/07/13 08:13:46;;;;;;;;;;;1229.00;665.60;;;;;;5090020;28;20070;-61
2022/07/13 08:16:12;;;;;;;;;;;1203.30;665.60;;;;;;5089504;28;20358;-58
2022/07/13 08:18:38;;;;;;;;;;;1177.60;691.20;;;;;;5089314;28;19934;-58
2022/07/13 08:21:03;;;;;;;;;;;1126.40;742.40;;;;;;5089471;28;20332;-60
2022/07/13 08:26:13;;;;;;;;;;;999.10;819.20;;;;;;5088411;28;19919;-60
2022/07/13 08:28:39;;;;;;;;;;;947.90;844.80;;;;;;5089888;28;20285;-59
2022/07/13 08:31:05;;;;;;;;;;;896.90;896.00;;;;;;5090293;28;20349;-59
2022/07/13 08:38:59;;;;;;;;;;;;;;;;;;5090341;28;19954;-60
2022/07/13 08:41:25;;;;;;;;;;;870.80;947.20;;;;;;5090451;28;20281;-60
2022/07/13 08:43:50;;;;;;;;;;;845.10;998.40;;;;;;5090429;28;19939;-59
2022/07/13 08:46:18;;;;;;;;;;;844.80;998.40;;;;;;5090691;28;20439;-59
2022/07/13 08:48:45;;;;;;;;;;;844.80;998.40;;;;;;5090573;28;19959;-60
2022/07/13 08:51:11;;;;;;;;;;;819.90;998.40;;;;;;5090542;28;19912;-59
2022/07/13 08:53:39;;;;;;;;;;;819.80;1024.00;;;;;;5090386;28;19915;-59
2022/07/13 08:56:04;;;;;;;;;;;819.80;998.40;;;;;;5090470;28;19954;-60
2022/07/13 08:58:30;;;;;;;;;;;819.30;998.40;;;;;;5090198;28;19908;-60
2022/07/13 09:00:56;;;;;;;;;;;819.20;1024.00;;;;;;5090165;28;19920;-59
2022/07/13 09:03:21;;;;;;;;;;;819.20;1024.00;;;;;;5090656;28;19915;-61
2022/07/13 09:05:47;;;;;;;;;;;819.30;1024.00;;;;;;5090229;28;20381;-59
2022/07/13 09:08:13;;;;;;;;;;;794.20;1024.00;;;;;;5090109;28;19951;-62
2022/07/13 09:10:56;;;;;;;;;;;793.70;1049.60;;;;;;5089998;28;19992;-62
2022/07/13 09:13:36;;;;;;;;;;;794.00;1049.60;;;;;;5090361;28;19920;-60
2022/07/13 09:16:17;;;;;;;;;;;794.50;1024.00;;;;;;5090493;28;19908;-61
2022/07/13 09:18:49;;;;;;;;;;;819.30;1024.00;;;;;;5087775;28;19908;-61
2022/07/13 09:21:15;;;;;;;;;;;794.50;1024.00;;;;;;5088497;28;19912;-59
2022/07/13 09:23:41;;;;;;;;;;;794.40;1024.00;;;;;;5088660;28;20327;-61
2022/07/13 09:26:07;;;;;;;;;;;819.30;1024.00;;;;;;5088525;28;19919;-60
2022/07/13 09:28:43;;;;;;;;;;;819.20;1049.60;;;;;;5088558;28;20282;-59
2022/07/13 09:31:09;;;;;;;;;;;794.20;1049.60;;;;;;5088012;28;20002;-60
2022/07/13 09:33:35;;;;;;;;;;;819.30;1049.60;;;;;;5088328;28;20457;-60
2022/07/13 09:36:10;;;;;;;;;;;819.30;1049.60;;;;;;5088357;28;19912;-61
2022/07/13 09:38:36;;;;;;;;;;;794.50;998.40;;;;;;5088163;28;19916;-60
2022/07/13 09:41:14;;;;;;;;;;;819.20;1024.00;;;;;;5089772;28;19912;-60
2022/07/13 09:46:51;;;;;;;;;;;793.60;1049.60;;;;;;5092077;28;20324;-60
2022/07/13 09:49:18;;;;;;;;;;;768.40;1049.60;;;;;;5092119;28;20507;-61
2022/07/13 09:51:44;;;;;;;;;;;768.80;1049.60;;;;;;5091985;28;20357;-60
2022/07/13 09:54:11;;;;;;;;;;;768.60;1049.60;;;;;;5092116;28;19981;-58
2022/07/13 09:56:36;;;;;;;;;;;768.40;1075.20;;;;;;5091291;28;19999;-59
2022/07/13 09:59:04;;;;;;;;;;;768.40;1075.20;;;;;;5092022;28;19943;-60
2022/07/13 10:01:31;;;;;;;;;;;768.60;1024.00;;;;;;5091592;28;19924;-60
2022/07/13 10:03:58;;;;;;;;;;;768.90;1075.20;;;;;;5091755;28;19908;-61
2022/07/13 10:06:23;;;;;;;;;;;768.90;1049.60;;;;;;5091920;28;20261;-60
2022/07/13 10:08:53;;;;;;;;;;;768.40;1075.20;;;;;;5091419;28;19912;-59
2022/07/13 10:11:18;;;;;;;;;;;768.30;1100.80;;;;;;5090928;28;20011;-58
2022/07/13 10:13:45;;;;;;;;;;;768.40;1075.20;;;;;;5091867;28;20365;-59
2022/07/13 10:16:11;;;;;;;;;;;768.50;1100.80;;;;;;5093615;28;20282;-59
2022/07/13 10:18:39;;;;;;;;;;;743.30;1100.80;;;;;;5093029;28;19915;-59
2022/07/13 10:21:23;;;;;;;;;;;743.30;1100.80;;;;;;5092863;28;19912;-60
2022/07/13 10:23:49;;;;;;;;;;;768.00;1126.40;;;;;;5092897;28;20370;-59
2022/07/13 10:26:21;;;;;;;;;;;768.10;1100.80;;;;;;5092797;28;19912;-59
2022/07/13 10:29:00;;;;;;;;;;;768.00;1126.40;;;;;;5092671;28;19951;-59
2022/07/13 10:31:26;;;;;;;;;;;768.60;1100.80;;;;;;5092859;28;19938;-59
2022/07/13 10:33:52;;;;;;;;;;;768.40;1100.80;;;;;;5092905;28;19977;-59
2022/07/13 10:36:37;;;;;;;;;;;768.20;1126.40;;;;;;5092659;28;20362;-59
2022/07/13 10:39:07;;;;;;;;;;;743.10;1126.40;;;;;;5092654;28;19908;-59
2022/07/13 10:41:32;;;;;;;;;;;743.00;1152.00;;;;;;5092356;28;19995;-59
2022/07/13 10:44:24;;;;;;;;;;;742.90;1152.00;;;;;;5092346;28;20033;-59
2022/07/13 10:46:50;;;;;;;;;;;743.00;1152.00;;;;;;5092163;28;19915;-59
2022/07/13 10:49:31;;;;;;;;;;;743.10;1100.80;;;;;;5092417;28;19924;-59
2022/07/13 10:51:57;;;;;;;;;;;743.30;1126.40;;;;;;5091435;28;19908;-59
2022/07/13 10:54:23;;;;;;;;;;;743.30;1126.40;;;;;;5092262;28;19961;-59
2022/07/13 10:57:07;;;;;;;;;;;743.30;1126.40;;;;;;5092302;28;19908;-59
2022/07/13 10:59:46;;;;;;;;;;;743.10;1126.40;;;;;;5092293;28;20344;-58
2022/07/13 11:02:30;;;;;;;;;;;743.20;1152.00;;;;;;5092265;28;20010;-59
2022/07/13 11:04:57;;;;;;;;;;;768.00;1152.00;;;;;;5091895;28;19908;-59
2022/07/13 11:07:38;;;;;;;;;;;743.30;1100.80;;;;;;5092153;28;19962;-59
2022/07/13 11:10:23;;;;;;;;;;;743.00;1126.40;;;;;;5092034;28;19916;-59
2022/07/13 11:12:54;;;;;;;;;;;742.60;1126.40;;;;;;5091642;28;20346;-59
2022/07/13 11:15:20;;;;;;;;;;;743.00;1126.40;;;;;;5092396;28;19939;-59
2022/07/13 11:17:53;;;;;;;;;;;743.10;1126.40;;;;;;5092078;28;20354;-59
2022/07/13 11:20:19;;;;;;;;;;;768.10;1100.80;;;;;;5091779;28;20425;-59
2022/07/13 11:25:55;;;;;;;;;;;768.60;1100.80;;;;;;5092038;28;20373;-59
2022/07/13 11:28:28;;;;;;;;;;;768.40;1075.20;;;;;;5091583;28;19934;-58
2022/07/13 11:30:54;;;;;;;;;;;768.30;1075.20;;;;;;5091556;28;19908;-59
2022/07/13 11:33:20;;;;;;;;;;;768.00;1075.20;;;;;;5091734;28;19916;-60
2022/07/13 11:35:46;;;;;;;;;;;743.20;1100.80;;;;;;5091545;28;19961;-60
2022/07/13 11:38:13;;;;;;;;;;;743.10;1049.60;;;;;;5091435;28;20014;-59
2022/07/13 11:40:39;;;;;;;;;;;743.00;1075.20;;;;;;5091176;28;19908;-59
2022/07/13 11:43:07;;;;;;;;;;;743.00;1100.80;;;;;;5091195;28;19920;-60
2022/07/13 11:45:33;;;;;;;;;;;742.80;1100.80;;;;;;5091279;28;19908;-59
2022/07/13 11:48:00;;;;;;;;;;;743.00;1075.20;;;;;;5090998;28;19908;-60
2022/07/13 11:50:42;;;;;;;;;;;743.10;1100.80;;;;;;5091215;28;20366;-58
2022/07/13 11:53:08;;;;;;;;;;;743.10;1075.20;;;;;;5091184;28;19962;-59
2022/07/13 11:55:35;;;;;;;;;;;743.20;1126.40;;;;;;5091184;28;19908;-59
2022/07/13 11:58:01;;;;;;;;;;;743.10;1100.80;;;;;;5091366;28;19908;-60
2022/07/13 12:00:27;;;;;;;;;;;743.00;1075.20;;;;;;5090950;28;20258;-61
2022/07/13 12:02:52;;;;;;;;;;;743.10;1100.80;;;;;;5091088;28;19909;-61
2022/07/13 12:05:22;;;;;;;;;;;743.30;1100.80;;;;;;5090952;28;19912;-62
2022/07/13 12:07:59;;;;;;;;;;;743.10;1075.20;;;;;;5091045;28;19908;-60
2022/07/13 12:10:25;;;;;;;;;;;743.00;1100.80;;;;;;5090800;28;19920;-61
2022/07/13 12:12:50;;;;;;;;;;;742.80;1126.40;;;;;;5090953;28;19912;-62
2022/07/13 12:15:17;;;;;;;;;;;742.70;1126.40;;;;;;5090996;28;19908;-64
2022/07/13 12:17:44;;;;;;;;;;;743.00;1126.40;;;;;;5091000;28;19915;-64
2022/07/13 12:20:12;;;;;;;;;;;768.00;1126.40;;;;;;5090754;28;19908;-63
2022/07/13 12:22:37;;;;;;;;;;;768.10;1100.80;;;;;;5088161;28;20251;-65
2022/07/13 12:25:03;;;;;;;;;;;743.30;1075.20;;;;;;5089234;28;19908;-64
2022/07/13 12:27:29;;;;;;;;;;;743.00;1049.60;;;;;;5089077;28;19912;-63
2022/07/13 12:30:07;;;;;;;;;;;742.90;1100.80;;;;;;5089052;28;19920;-61
2022/07/13 12:32:33;;;;;;;;;;;743.00;1100.80;;;;;;5089211;28;19912;-61
2022/07/13 12:34:58;;;;;;;;;;;742.90;1075.20;;;;;;5088482;28;19934;-60
2022/07/13 12:37:36;;;;;;;;;;;742.90;1100.80;;;;;;5089083;28;19908;-64
2022/07/13 12:40:05;;;;;;;;;;;742.80;1100.80;;;;;;5088953;28;19919;-61
2022/07/13 12:42:32;;;;;;;;;;;743.00;1100.80;;;;;;5088898;28;19918;-61
2022/07/13 12:44:57;;;;;;;;;;;743.00;1100.80;;;;;;5088781;28;20389;-60
2022/07/13 12:47:26;;;;;;;;;;;743.30;1100.80;;;;;;5088533;28;19912;-64
2022/07/13 12:49:52;;;;;;;;;;;768.00;1126.40;;;;;;5088978;28;19917;-65
2022/07/13 12:52:21;;;;;;;;;;;768.10;1126.40;;;;;;5089030;28;20369;-62
2022/07/13 12:54:51;;;;;;;;;;;743.30;1126.40;;;;;;5088661;28;19913;-62
2022/07/13 12:57:18;;;;;;;;;;;743.10;1100.80;;;;;;5088754;28;19912;-60
2022/07/13 13:00:00;;;;;;;;;;;743.20;1100.80;;;;;;5088539;28;19916;-64
2022/07/13 13:02:28;;;;;;;;;;;742.90;1100.80;;;;;;5088839;28;19927;-63
2022/07/13 13:04:53;;;;;;;;;;;742.70;1100.80;;;;;;5089064;28;19971;-64
2022/07/13 13:07:19;;;;;;;;;;;742.60;1126.40;;;;;;5088756;28;19909;-61
2022/07/13 13:09:44;;;;;;;;;;;742.50;1126.40;;;;;;5088631;28;20385;-66
2022/07/13 13:12:10;;;;;;;;;;;742.70;1126.40;;;;;;5088300;28;19928;-63
2022/07/13 13:14:36;;;;;;;;;;;742.80;1126.40;;;;;;5090642;28;20234;-63
2022/07/13 13:17:02;;;;;;;;;;;743.00;1126.40;;;;;;5093572;28;19919;-64
2022/07/13 13:19:27;;;;;;;;;;;743.20;1100.80;;;;;;5094049;28;19916;-63
2022/07/13 13:21:53;;;;;;;;;;;743.10;1100.80;;;;;;5094252;28;20426;-61
2022/07/13 13:24:18;;;;;;;;;;;743.00;1100.80;;;;;;5094251;28;19943;-61
2022/07/13 13:26:47;;;;;;;;;;;743.00;1100.80;;;;;;5094103;28;19912;-64
2022/07/13 13:31:57;;;;;;;;;;;768.00;1075.20;;;;;;5094213;28;20011;-63
2022/07/13 13:34:23;;;;;;;;;;;743.30;1100.80;;;;;;5093883;28;19908;-61
2022/07/13 13:36:49;;;;;;;;;;;768.10;1100.80;;;;;;5092108;28;20373;-61
2022/07/13 13:39:15;;;;;;;;;;;768.10;1075.20;;;;;;5092179;28;20004;-62
2022/07/13 13:41:41;;;;;;;;;;;768.00;1100.80;;;;;;5092202;28;19934;-65
2022/07/13 13:44:07;;;;;;;;;;;743.30;1100.80;;;;;;5091941;28;19912;-62
2022/07/13 13:46:32;;;;;;;;;;;743.30;1100.80;;;;;;5092389;28;19912;-62
2022/07/13 13:48:58;;;;;;;;;;;743.20;1100.80;;;;;;5092012;28;19969;-63
2022/07/13 13:51:23;;;;;;;;;;;743.30;1126.40;;;;;;5091627;28;19912;-64
2022/07/13 13:53:49;;;;;;;;;;;743.10;1100.80;;;;;;5091975;28;19963;-61
2022/07/13 13:56:14;;;;;;;;;;;743.30;1126.40;;;;;;5092039;28;19916;-62